createdAt,value
2018-08-25T00:01:55.817Z,6.10
2018-08-25T00:04:24.902Z,4.30
2018-08-25T00:06:53.800Z,3.50
2018-08-25T00:09:22.914Z,3.83
2018-08-25T00:11:51.989Z,4.77
2018-08-25T00:14:20.872Z,7.60
2018-08-25T00:16:50.028Z,4.23
2018-08-25T00:19:19.118Z,7.13
2018-08-25T00:21:48.218Z,4.93
2018-08-25T00:24:17.753Z,5.47
2018-08-25T00:26:46.677Z,9.93
2018-08-25T00:29:15.619Z,11.43
2018-08-25T00:31:44.535Z,3.90
2018-08-25T00:34:13.673Z,3.10
2018-08-25T00:36:42.990Z,5.23
2018-08-25T00:39:12.123Z,4.83
2018-08-25T00:41:41.021Z,4.87
2018-08-25T00:44:09.987Z,3.60
2018-08-25T00:46:38.879Z,8.50
2018-08-25T00:49:08.234Z,4.20
2018-08-25T00:51:37.383Z,2.63
2018-08-25T00:54:06.479Z,13.83
2018-08-25T00:56:35.353Z,5.23
2018-08-25T00:59:04.273Z,7.13
2018-08-25T01:01:33.167Z,3.23
2018-08-25T01:04:02.307Z,3.57
2018-08-25T01:06:31.167Z,4.50
2018-08-25T01:09:00.340Z,5.57
2018-08-25T01:11:29.243Z,3.87
2018-08-25T01:13:58.130Z,4.10
2018-08-25T01:16:27.083Z,5.60
2018-08-25T01:18:56.200Z,8.43
2018-08-25T01:21:25.071Z,6.70
2018-08-25T01:23:53.995Z,4.37
2018-08-25T01:26:23.259Z,2.90
2018-08-25T01:28:52.847Z,4.13
2018-08-25T01:31:21.776Z,3.13
2018-08-25T01:33:50.686Z,6.30
2018-08-25T01:36:19.631Z,3.57
2018-08-25T01:38:48.502Z,4.87
2018-08-25T01:41:17.386Z,5.50
2018-08-25T01:43:46.742Z,4.63
2018-08-25T01:46:15.621Z,4.93
2018-08-25T01:48:44.493Z,5.47
2018-08-25T01:51:13.384Z,4.30
2018-08-25T01:53:42.323Z,5.00
2018-08-25T01:56:11.239Z,6.80
2018-08-25T01:58:40.182Z,7.13
2018-08-25T02:01:09.283Z,5.43
2018-08-25T02:03:38.180Z,6.83
2018-08-25T02:06:07.324Z,7.37
2018-08-25T02:08:36.457Z,3.57
2018-08-25T02:11:05.363Z,3.70
2018-08-25T02:13:34.513Z,5.63
2018-08-25T02:16:03.430Z,6.20
2018-08-25T02:18:32.604Z,5.63
2018-08-25T02:21:01.476Z,3.53
2018-08-25T02:23:30.411Z,4.37
2018-08-25T02:25:59.327Z,5.87
2018-08-25T02:28:28.264Z,3.10
2018-08-25T02:30:57.434Z,5.70
2018-08-25T02:33:26.319Z,4.67
2018-08-25T02:35:55.214Z,5.97
2018-08-25T02:38:24.322Z,4.70
2018-08-25T02:40:53.200Z,5.63
2018-08-25T02:43:22.436Z,4.13
2018-08-25T02:45:51.394Z,3.13
2018-08-25T02:48:20.570Z,2.90
2018-08-25T02:50:49.459Z,6.43
2018-08-25T02:53:18.428Z,5.00
2018-08-25T02:55:47.394Z,6.07
2018-08-25T02:58:16.300Z,10.47
2018-08-25T03:00:45.223Z,6.30
2018-08-25T03:03:14.767Z,5.27
2018-08-25T03:05:43.692Z,6.33
2018-08-25T03:08:12.645Z,8.53
2018-08-25T03:10:41.572Z,6.57
2018-08-25T03:13:10.447Z,7.27
2018-08-25T03:15:39.624Z,9.50
2018-08-25T03:18:08.528Z,9.30
2018-08-25T03:20:37.656Z,8.67
2018-08-25T03:23:06.783Z,11.83
2018-08-25T03:25:35.696Z,6.20
2018-08-25T03:28:04.626Z,5.23
2018-08-25T03:30:33.807Z,5.63
2018-08-25T03:33:02.724Z,5.33
2018-08-25T03:35:31.877Z,5.80
2018-08-25T03:38:00.995Z,6.03
2018-08-25T03:40:30.174Z,7.60
2018-08-25T03:42:59.079Z,5.07
2018-08-25T03:45:27.974Z,5.63
2018-08-25T03:47:57.154Z,6.73
2018-08-25T03:50:26.281Z,5.83
2018-08-25T03:52:55.179Z,6.47
2018-08-25T03:55:24.377Z,5.13
2018-08-25T03:57:53.474Z,7.30
2018-08-25T04:00:22.423Z,5.90
2018-08-25T04:02:51.322Z,13.07
2018-08-25T04:05:20.446Z,6.83
2018-08-25T04:07:49.385Z,8.37
2018-08-25T04:10:18.485Z,6.10
2018-08-25T04:12:47.607Z,7.80
2018-08-25T04:15:16.501Z,7.97
2018-08-25T04:17:45.382Z,7.60
2018-08-25T04:20:14.511Z,7.23
2018-08-25T04:22:43.479Z,6.97
2018-08-25T04:25:12.345Z,6.30
2018-08-25T04:27:42.513Z,5.27
2018-08-25T04:30:11.410Z,6.07
2018-08-25T04:32:40.353Z,5.90
2018-08-25T04:35:09.465Z,4.67
2018-08-25T04:37:38.397Z,6.27
2018-08-25T04:40:07.293Z,7.70
2018-08-25T04:42:36.167Z,6.13
2018-08-25T04:45:05.104Z,6.20
2018-08-25T04:47:34.057Z,9.90
2018-08-25T04:50:03.040Z,14.93
2018-08-25T04:52:32.170Z,9.60
2018-08-25T04:55:01.346Z,8.97
2018-08-25T04:57:30.661Z,7.90
2018-08-25T04:59:59.563Z,16.83
2018-08-25T05:02:28.494Z,24.43
2018-08-25T05:04:57.612Z,20.67
2018-08-25T05:07:26.556Z,14.83
2018-08-25T05:09:55.664Z,19.20
2018-08-25T05:12:24.762Z,18.33
2018-08-25T05:14:53.740Z,21.50
2018-08-25T05:17:22.770Z,18.47
2018-08-25T05:19:52.110Z,17.17
2018-08-25T05:22:21.233Z,19.10
2018-08-25T05:24:50.408Z,17.97
2018-08-25T05:27:19.749Z,21.33
2018-08-25T05:29:48.655Z,22.87
2018-08-25T05:32:17.568Z,17.53
2018-08-25T05:34:46.464Z,19.53
2018-08-25T05:37:15.387Z,23.73
2018-08-25T05:39:44.563Z,18.10
2018-08-25T05:42:13.667Z,21.20
2018-08-25T05:44:42.612Z,22.60
2018-08-25T05:47:11.968Z,17.27
2018-08-25T05:49:41.086Z,19.43
2018-08-25T05:52:10.028Z,17.33
2018-08-25T05:54:38.936Z,15.80
2018-08-25T05:57:08.045Z,23.80
2018-08-25T05:59:37.206Z,19.67
2018-08-25T06:02:06.104Z,24.57
2018-08-25T06:04:35.058Z,26.70
2018-08-25T06:07:04.145Z,24.00
2018-08-25T06:09:33.414Z,31.40
2018-08-25T06:12:02.419Z,26.67
2018-08-25T06:14:31.535Z,28.77
2018-08-25T06:17:00.574Z,28.47
2018-08-25T06:19:29.497Z,33.00
2018-08-25T06:21:58.621Z,27.13
2018-08-25T06:24:27.616Z,29.83
2018-08-25T06:26:56.594Z,26.20
2018-08-25T06:29:25.771Z,27.47
2018-08-25T06:31:54.811Z,33.77
2018-08-25T06:34:23.939Z,33.77
2018-08-25T06:36:52.864Z,37.40
2018-08-25T06:39:22.401Z,33.70
2018-08-25T06:41:51.864Z,33.80
2018-08-25T06:44:21.015Z,38.77
2018-08-25T06:46:49.988Z,33.93
2018-08-25T06:49:19.256Z,37.13
2018-08-25T06:51:48.290Z,38.20
2018-08-25T06:54:17.947Z,34.10
2018-08-25T06:56:47.153Z,34.07
2018-08-25T06:59:16.321Z,36.40
2018-08-25T07:01:45.512Z,55.07
2018-08-25T07:04:14.497Z,35.97
2018-08-25T07:06:43.452Z,49.30
2018-08-25T07:09:13.218Z,60.93
2018-08-25T07:11:43.467Z,29.63
2018-08-25T07:14:12.534Z,36.93
2018-08-25T07:16:41.456Z,39.90
2018-08-25T07:19:10.372Z,39.90
2018-08-25T07:21:39.336Z,35.43
2018-08-25T07:24:08.314Z,41.97
2018-08-25T07:26:37.241Z,31.13
2018-08-25T07:29:06.507Z,37.97
2018-08-25T07:31:35.439Z,35.40
2018-08-25T07:34:06.241Z,32.23
2018-08-25T07:36:36.885Z,37.20
2018-08-25T07:39:09.359Z,30.17
2018-08-25T07:41:38.540Z,32.40
2018-08-25T07:44:07.429Z,33.97
2018-08-25T07:46:36.806Z,31.40
2018-08-25T07:49:05.800Z,35.33
2018-08-25T07:51:34.764Z,31.20
2018-08-25T07:54:03.845Z,27.77
2018-08-25T07:56:32.747Z,33.80
2018-08-25T07:59:01.753Z,40.53
2018-08-25T08:01:31.280Z,30.37
2018-08-25T08:04:00.151Z,31.03
2018-08-25T08:06:29.979Z,30.80
2018-08-25T08:08:59.033Z,36.77
2018-08-25T08:11:28.096Z,34.33
2018-08-25T08:13:57.034Z,32.30
2018-08-25T08:16:26.027Z,31.80
2018-08-25T08:18:55.252Z,32.90
2018-08-25T08:21:24.160Z,29.33
2018-08-25T08:23:53.221Z,30.27
2018-08-25T08:26:22.145Z,31.70
2018-08-25T08:28:51.295Z,28.20
2018-08-25T08:31:20.408Z,25.60
2018-08-25T08:33:49.386Z,24.70
2018-08-25T08:36:18.324Z,31.43
2018-08-25T08:38:47.472Z,19.00
2018-08-25T08:41:16.466Z,17.37
2018-08-25T08:43:45.688Z,17.40
2018-08-25T08:46:14.883Z,17.23
2018-08-25T08:48:43.779Z,17.70
2018-08-25T08:51:12.702Z,15.70
2018-08-25T08:53:41.778Z,17.93
2018-08-25T08:56:10.658Z,15.37
2018-08-25T08:58:39.540Z,13.20
2018-08-25T09:01:08.431Z,13.20
2018-08-25T09:03:37.583Z,14.10
2018-08-25T09:06:06.894Z,13.10
2018-08-25T09:08:35.759Z,15.30
2018-08-25T09:11:04.704Z,13.07
2018-08-25T09:13:33.589Z,10.70
2018-08-25T09:16:02.663Z,10.97
2018-08-25T09:18:31.543Z,9.33
2018-08-25T09:21:00.714Z,9.20
2018-08-25T09:23:30.394Z,9.70
2018-08-25T09:25:59.293Z,11.47
2018-08-25T09:28:28.254Z,7.73
2018-08-25T09:30:57.137Z,10.43
2018-08-25T09:33:26.002Z,8.47
2018-08-25T09:35:54.922Z,7.53
2018-08-25T09:38:23.739Z,7.97
2018-08-25T09:40:52.616Z,6.30
2018-08-25T09:43:21.547Z,6.73
2018-08-25T09:45:50.761Z,6.20
2018-08-25T09:48:19.611Z,6.80
2018-08-25T09:50:48.505Z,6.77
2018-08-25T09:53:17.464Z,6.07
2018-08-25T09:55:46.567Z,7.67
2018-08-25T09:58:15.971Z,6.13
2018-08-25T10:00:45.395Z,5.90
2018-08-25T10:03:14.263Z,6.00
2018-08-25T10:05:43.167Z,5.70
2018-08-25T10:08:12.322Z,6.27
2018-08-25T10:10:41.546Z,5.30
2018-08-25T10:13:10.393Z,4.80
2018-08-25T10:15:39.296Z,5.30
2018-08-25T10:18:08.500Z,4.87
2018-08-25T10:20:37.352Z,5.70
2018-08-25T10:23:06.543Z,5.43
2018-08-25T10:25:35.354Z,5.70
2018-08-25T10:28:04.452Z,6.80
2018-08-25T10:30:33.382Z,4.40
2018-08-25T10:33:02.227Z,4.60
2018-08-25T10:35:31.215Z,7.03
2018-08-25T10:38:00.121Z,8.70
2018-08-25T10:40:29.222Z,9.67
2018-08-25T10:42:58.377Z,10.37
2018-08-25T10:45:27.530Z,7.13
2018-08-25T10:47:56.419Z,8.07
2018-08-25T10:50:25.368Z,7.60
2018-08-25T10:52:54.459Z,14.07
2018-08-25T10:55:23.327Z,7.93
2018-08-25T10:57:52.201Z,10.93
2018-08-25T11:00:21.666Z,7.67
2018-08-25T11:02:50.706Z,7.50
2018-08-25T11:05:19.588Z,10.53
2018-08-25T11:07:48.478Z,6.73
2018-08-25T11:10:17.368Z,12.40
2018-08-25T11:12:46.520Z,8.57
2018-08-25T11:15:15.712Z,5.60
2018-08-25T11:17:44.655Z,8.63
2018-08-25T11:20:13.503Z,6.03
2018-08-25T11:22:42.446Z,6.83
2018-08-25T11:25:11.843Z,6.03
2018-08-25T11:27:40.740Z,6.50
2018-08-25T11:30:09.595Z,6.60
2018-08-25T11:32:38.847Z,6.10
2018-08-25T11:35:07.771Z,6.13
2018-08-25T11:37:36.881Z,5.10
2018-08-25T11:40:08.148Z,8.50
2018-08-25T11:42:39.086Z,5.60
2018-08-25T11:45:09.143Z,7.30
2018-08-25T11:47:38.087Z,5.10
2018-08-25T11:50:07.435Z,4.17
2018-08-25T11:52:36.331Z,5.47
2018-08-25T11:55:05.413Z,4.87
2018-08-25T11:57:34.900Z,8.60
2018-08-25T12:00:03.777Z,5.10
2018-08-25T12:02:32.648Z,4.80
2018-08-25T12:05:01.514Z,5.60
2018-08-25T12:07:31.542Z,4.80
2018-08-25T12:10:01.707Z,4.40
2018-08-25T12:12:30.695Z,3.83
2018-08-25T12:15:00.578Z,4.70
2018-08-25T12:17:30.501Z,6.27
2018-08-25T12:20:00.508Z,3.90
2018-08-25T12:22:30.119Z,4.50
2018-08-25T12:25:00.437Z,3.27
2018-08-25T12:27:29.462Z,4.23
2018-08-25T12:29:58.544Z,4.57
2018-08-25T12:32:27.758Z,4.10
2018-08-25T12:34:56.748Z,3.60
2018-08-25T12:37:25.872Z,8.83
2018-08-25T12:39:54.763Z,5.33
2018-08-25T12:42:23.995Z,9.53
2018-08-25T12:44:52.947Z,5.37
2018-08-25T12:47:24.715Z,9.77
2018-08-25T12:49:55.509Z,4.80
2018-08-25T12:52:25.044Z,5.43
2018-08-25T12:54:54.015Z,5.80
2018-08-25T12:57:22.904Z,6.10
2018-08-25T12:59:51.975Z,7.90
2018-08-25T13:02:20.845Z,8.30
2018-08-25T13:04:50.249Z,4.20
2018-08-25T13:07:19.150Z,6.33
2018-08-25T13:09:47.987Z,6.57
2018-08-25T13:12:16.863Z,4.97
2018-08-25T13:14:45.782Z,3.87
2018-08-25T13:17:14.647Z,4.17
2018-08-25T13:19:43.521Z,6.00
2018-08-25T13:22:12.631Z,4.30
2018-08-25T13:24:41.499Z,3.00
2018-08-25T13:27:10.402Z,3.47
2018-08-25T13:29:39.876Z,4.17
2018-08-25T13:32:08.730Z,4.70
2018-08-25T13:34:37.619Z,4.00
2018-08-25T13:37:06.780Z,5.53
2018-08-25T13:39:35.897Z,2.50
2018-08-25T13:42:04.795Z,4.47
2018-08-25T13:44:34.292Z,6.07
2018-08-25T13:47:03.147Z,4.60
2018-08-25T13:49:32.018Z,3.40
2018-08-25T13:52:00.905Z,6.03
2018-08-25T13:54:29.802Z,4.97
2018-08-25T13:56:58.680Z,2.33
2018-08-25T13:59:27.594Z,2.23
2018-08-25T14:01:56.514Z,2.83
2018-08-25T14:04:25.372Z,6.70
2018-08-25T14:06:54.251Z,2.77
2018-08-25T14:09:23.186Z,4.90
2018-08-25T14:11:52.391Z,2.87
2018-08-25T14:14:21.298Z,2.57
2018-08-25T14:16:50.443Z,3.10
2018-08-25T14:19:19.302Z,4.17
2018-08-25T14:21:48.661Z,4.40
2018-08-25T14:24:17.552Z,4.13
2018-08-25T14:26:46.686Z,4.53
2018-08-25T14:29:15.775Z,5.13
2018-08-25T14:31:44.687Z,4.43
2018-08-25T14:34:13.799Z,4.37
2018-08-25T14:36:42.764Z,2.80
2018-08-25T14:39:12.227Z,2.33
2018-08-25T14:41:41.154Z,5.37
2018-08-25T14:44:10.062Z,2.80
2018-08-25T14:46:38.978Z,5.20
2018-08-25T14:49:08.264Z,5.97
2018-08-25T14:51:37.142Z,4.07
2018-08-25T14:54:06.015Z,8.87
2018-08-25T14:56:34.907Z,7.40
2018-08-25T14:59:03.759Z,4.20
2018-08-25T15:01:33.846Z,2.80
2018-08-25T15:04:02.782Z,2.87
2018-08-25T15:06:31.623Z,7.10
2018-08-25T15:09:00.475Z,2.50
2018-08-25T15:11:29.443Z,2.33
2018-08-25T15:13:58.282Z,3.63
2018-08-25T15:16:27.184Z,3.20
2018-08-25T15:18:56.145Z,2.50
2018-08-25T15:21:24.970Z,2.60
2018-08-25T15:23:53.894Z,5.00
2018-08-25T15:26:22.810Z,3.37
2018-08-25T15:28:52.085Z,1.70
2018-08-25T15:31:20.938Z,1.50
2018-08-25T15:33:50.083Z,4.33
2018-08-25T15:36:19.411Z,1.10
2018-08-25T15:38:48.384Z,2.83
2018-08-25T15:41:17.292Z,1.33
2018-08-25T15:43:46.144Z,1.20
2018-08-25T15:46:15.554Z,2.00
2018-08-25T15:48:44.608Z,1.73
2018-08-25T15:51:13.753Z,1.10
2018-08-25T15:53:42.888Z,1.33
2018-08-25T15:56:11.995Z,1.13
2018-08-25T15:58:40.944Z,1.00
2018-08-25T16:01:09.920Z,1.20
2018-08-25T16:03:39.048Z,1.07
2018-08-25T16:06:07.977Z,1.90
2018-08-25T16:08:36.809Z,1.83
2018-08-25T16:11:06.219Z,1.10
2018-08-25T16:13:43.376Z,1.00
2018-08-25T16:16:12.559Z,1.83
2018-08-25T16:18:41.465Z,1.10
2018-08-25T16:21:10.596Z,1.17
2018-08-25T16:23:39.481Z,1.13
2018-08-25T16:26:08.931Z,2.60
2018-08-25T16:28:38.592Z,1.53
2018-08-25T16:31:07.462Z,1.63
2018-08-25T16:33:36.703Z,0.97
2018-08-25T16:36:05.589Z,0.87
2018-08-25T16:38:34.463Z,1.83
2018-08-25T16:41:03.351Z,1.10
2018-08-25T16:43:32.211Z,1.83
2018-08-25T16:46:01.107Z,1.47
2018-08-25T16:48:29.953Z,1.10
2018-08-25T16:50:59.409Z,1.40
2018-08-25T16:53:28.975Z,0.80
2018-08-25T16:55:57.965Z,2.10
2018-08-25T16:58:26.754Z,1.00
2018-08-25T17:00:55.780Z,0.87
2018-08-25T17:03:24.668Z,0.80
2018-08-25T17:05:53.552Z,1.07
2018-08-25T17:08:22.450Z,1.97
2018-08-25T17:10:51.318Z,1.10
2018-08-25T17:13:20.517Z,1.00
2018-08-25T17:15:49.687Z,0.90
2018-08-25T17:18:19.071Z,1.30
2018-08-25T17:20:48.194Z,1.43
2018-08-25T17:23:17.111Z,3.73
2018-08-25T17:25:46.251Z,1.00
2018-08-25T17:28:15.152Z,1.20
2018-08-25T17:30:44.102Z,1.20
2018-08-25T17:33:12.992Z,1.30
2018-08-25T17:35:41.943Z,0.90
2018-08-25T17:38:11.331Z,1.20
2018-08-25T17:40:40.278Z,0.90
2018-08-25T17:43:09.387Z,0.90
2018-08-25T17:45:38.286Z,1.10
2018-08-25T17:48:07.147Z,1.10
2018-08-25T17:50:36.431Z,1.03
2018-08-25T17:53:05.355Z,1.83
2018-08-25T17:55:34.243Z,1.07
2018-08-25T17:58:03.095Z,0.83
2018-08-25T18:00:32.234Z,1.30
2018-08-25T18:03:01.840Z,0.90
2018-08-25T18:05:30.998Z,0.97
2018-08-25T18:07:59.878Z,0.90
2018-08-25T18:10:29.020Z,1.10
2018-08-25T18:12:57.952Z,1.20
2018-08-25T18:15:27.141Z,4.23
2018-08-25T18:17:56.300Z,1.67
2018-08-25T18:20:25.265Z,2.23
2018-08-25T18:22:54.526Z,2.40
2018-08-25T18:25:23.836Z,3.73
2018-08-25T18:27:52.783Z,3.97
2018-08-25T18:30:22.104Z,3.40
2018-08-25T18:32:50.901Z,8.57
2018-08-25T18:35:20.068Z,2.93
2018-08-25T18:37:48.944Z,2.00
2018-08-25T18:40:17.811Z,1.90
2018-08-25T18:42:46.759Z,5.87
2018-08-25T18:45:15.647Z,5.17
2018-08-25T18:47:44.556Z,1.73
2018-08-25T18:50:13.474Z,3.70
2018-08-25T18:52:42.468Z,2.20
2018-08-25T18:55:11.461Z,1.80
2018-08-25T18:57:40.271Z,1.93
2018-08-25T19:00:09.142Z,1.37
2018-08-25T19:02:38.043Z,2.10
2018-08-25T19:05:07.279Z,1.83
2018-08-25T19:07:36.196Z,1.13
2018-08-25T19:10:05.148Z,3.40
2018-08-25T19:12:34.691Z,1.60
2018-08-25T19:15:04.334Z,1.20
2018-08-25T19:17:33.468Z,3.07
2018-08-25T19:20:02.392Z,2.27
2018-08-25T19:22:31.254Z,1.60
2018-08-25T19:25:00.145Z,3.30
2018-08-25T19:27:29.225Z,3.27
2018-08-25T19:29:58.078Z,2.60
2018-08-25T19:32:26.967Z,2.03
2018-08-25T19:34:55.861Z,1.60
2018-08-25T19:37:24.752Z,5.03
2018-08-25T19:39:53.613Z,1.30
2018-08-25T19:42:22.523Z,1.20
2018-08-25T19:44:52.245Z,1.37
2018-08-25T19:47:21.215Z,1.13
2018-08-25T19:49:50.338Z,5.13
2018-08-25T19:52:19.262Z,1.67
2018-08-25T19:54:48.133Z,1.30
2018-08-25T19:57:17.007Z,5.47
2018-08-25T19:59:45.897Z,4.63
2018-08-25T20:02:15.187Z,2.90
2018-08-25T20:04:44.051Z,1.47
2018-08-25T20:07:12.947Z,1.13
2018-08-25T20:09:41.932Z,1.37
2018-08-25T20:12:11.106Z,1.40
2018-08-25T20:14:40.000Z,1.10
2018-08-25T20:17:08.924Z,1.87
2018-08-25T20:19:38.048Z,3.03
2018-08-25T20:22:07.836Z,1.10
2018-08-25T20:24:36.947Z,6.03
2018-08-25T20:27:05.854Z,2.60
2018-08-25T20:29:34.868Z,3.13
2018-08-25T20:32:04.077Z,3.17
2018-08-25T20:34:32.944Z,3.27
2018-08-25T20:37:02.021Z,2.47
2018-08-25T20:39:30.908Z,1.20
2018-08-25T20:42:01.355Z,2.40
2018-08-25T20:44:30.481Z,2.30
2018-08-25T20:46:59.691Z,2.07
2018-08-25T20:49:28.880Z,3.00
2018-08-25T20:51:57.785Z,3.50
2018-08-25T20:54:29.426Z,2.40
2018-08-25T20:56:58.553Z,3.43
2018-08-25T20:59:27.972Z,1.90
2018-08-25T21:01:57.725Z,6.83
2018-08-25T21:04:27.032Z,9.80
2018-08-25T21:06:56.131Z,12.70
2018-08-25T21:09:25.543Z,3.20
2018-08-25T21:11:54.587Z,1.63
2018-08-25T21:14:24.225Z,2.47
2018-08-25T21:16:53.232Z,2.30
2018-08-25T21:19:22.732Z,2.27
2018-08-25T21:21:53.310Z,2.90
2018-08-25T21:24:23.169Z,1.53
2018-08-25T21:26:52.199Z,2.03
2018-08-25T21:29:21.395Z,1.90
2018-08-25T21:31:50.338Z,2.73
2018-08-25T21:34:19.203Z,2.57
2018-08-25T21:36:48.103Z,1.00
2018-08-25T21:39:16.985Z,4.00
2018-08-25T21:41:45.911Z,9.53
2018-08-25T21:44:14.783Z,7.27
2018-08-25T21:46:44.633Z,2.97
2018-08-25T21:49:13.762Z,3.43
2018-08-25T21:51:42.698Z,11.47
2018-08-25T21:54:11.580Z,5.70
2018-08-25T21:56:40.455Z,2.67
2018-08-25T21:59:09.659Z,8.13
2018-08-25T22:01:43.059Z,7.70
2018-08-25T22:04:12.561Z,1.40
2018-08-25T22:06:41.429Z,3.33
2018-08-25T22:09:11.786Z,3.77
2018-08-25T22:11:40.942Z,4.40
2018-08-25T22:14:10.086Z,12.03
2018-08-25T22:16:38.935Z,5.33
2018-08-25T22:19:07.812Z,7.23
2018-08-25T22:21:36.722Z,5.57
2018-08-25T22:24:05.575Z,5.73
2018-08-25T22:26:35.075Z,6.53
2018-08-25T22:29:04.386Z,3.70
2018-08-25T22:31:34.119Z,1.40
2018-08-25T22:34:03.140Z,4.37
2018-08-25T22:36:32.445Z,5.50
2018-08-25T22:39:01.313Z,2.40
2018-08-25T22:41:30.353Z,1.67
2018-08-25T22:43:59.646Z,2.67
2018-08-25T22:46:29.194Z,6.40
2018-08-25T22:48:58.100Z,2.90
2018-08-25T22:51:27.048Z,1.83
2018-08-25T22:53:55.825Z,1.13
2018-08-25T22:56:24.696Z,1.87
2018-08-25T22:58:53.571Z,2.10
2018-08-25T23:01:22.988Z,1.37
2018-08-25T23:03:51.833Z,7.10
2018-08-25T23:06:20.936Z,1.87
2018-08-25T23:08:49.799Z,1.47
2018-08-25T23:11:18.962Z,1.07
2018-08-25T23:13:48.074Z,1.20
2018-08-25T23:16:16.930Z,0.80
2018-08-25T23:18:45.871Z,0.70
2018-08-25T23:21:15.457Z,0.97
2018-08-25T23:23:44.314Z,2.07
2018-08-25T23:26:13.212Z,0.80
2018-08-25T23:28:42.331Z,1.67
2018-08-25T23:31:11.430Z,1.20
2018-08-25T23:33:40.623Z,5.30
2018-08-25T23:36:09.507Z,1.73
2018-08-25T23:38:38.435Z,3.53
2018-08-25T23:41:07.306Z,2.30
2018-08-25T23:43:36.713Z,2.57
2018-08-25T23:46:05.639Z,0.80
2018-08-25T23:48:34.755Z,1.67
2018-08-25T23:51:03.660Z,1.10
2018-08-25T23:53:33.383Z,0.70
2018-08-25T23:56:02.798Z,1.30
2018-08-25T23:58:31.727Z,1.07
